Hauptseite
METAR-TAF:

METAR-TAF

Flughäfen :

Flugplatz St. Gallen-Altenrhein

St. Gallen, Schweiz

Breite: 47-29-06N, Länge: 009-33-43E, Höhe: 398 m

Beobachtung

Neuester Wetterbericht von vor 15 Minuten, um 15:50 UTC
Wind 4 kt aus West
Temperatur 21°C
Luftfeuchtigkeit 73%
Luftdruck 1023 hPa
Sichtweite 10 km oder mehr
Durchbrochene Bewölkung in der Höhe von 3800 ft

METAR: LSZR 231550Z 28004KT 9999 BKN038 21/16 Q1023 NOSIG RMK M

Zeit: 18:05 (16:05 UTC)

Prognose

Neuester Wetterbericht von vor 1 Stunde und 40 Minuten, um 14:25 UTC
Gültige Prognose vom 23 um 15 UTC bis 23 um 24 UTC
Wind 4 kt aus West
Sichtweite 10 km oder mehr
Durchbrochene Bewölkung in der Höhe von 3500 ft
Zeitweise
vom 23 um 16 UTC bis 23 um 24 UTC
Sichtweite 10 km oder mehr
keine Wolken unter 1500 m und keine Kumulonimbus oder Gewitterwolken

TAF: LSZR 231425Z 2315/2324 27004KT 9999 BKN035 TEMPO 2316/2324 CAVOK

Wetterbeobachtungen und Prognosen von mehr als 4000 Flughäfen (METAR und TAF Bericht).

Die verfügbaren Stationen werden durch gelbe und rote Markierungen auf der Karte dargestellt.

Führen Sie die Maus auf sie, um den Namen der Station zu sehen.

Darauf klicken, um die Beobachtung von Wetterbeobachtungen und Prognosen zu sehen.

Um die Karte zu ändern : klicken Sie auf den grünen Tasten mit einem schwarzen Kreuz Zum Vergrößern, auf den grünen Button mit einem Gedankenstrich zu verkleinern, oder auf die grünen Pfeile für benachbarte Karten.


METAR-TAF: